Canjilon, NM (87515)

3:09 AM MDT on August 30, 2014 (GMT -0600)
RAWS STONE LAKE NM US | Change Station
CLOSE
Current Station
Personal Weather Station
Location: Dulce, NM
Elevation: 7385 ft
Nearby Weather Stations

Elev 7385 ft 36.73 °N, 106.87 °W | Updated 36 minutes ago

Clear
Clear
49 °F
Feels Like 49 °F
N
3
Wind Variable Wind from ESE
Gusts 4.0 mph

Today
High -- | Low -- °F
--% Chance of Precip.
Yesterday
High -- | Low -- °F
Precip. -- in
6:35 AM 7:37 PM
Waxing Crescent, 20% visible
Pressure 30.29 in
Visibility 10.0 miles
Clouds Clear
Windchill 49 °F
Dew Point 34 °F
Humidity 55%
Rainfall 0.00 in
Snow Depth Not available.
UV 0 out of 12
Pollen 10.10 out of 12
Air Quality Not available.
Flu Activity Not available.
METAR KPSO 300855Z AUTO 00000KT 10SM CLR 09/03 A3029 RMK AO2 T00940030

More Conditions Fewer Conditions

Pressure 30.29 in
Visibility 10.0 miles
Clouds Clear
Windchill 49 °F
Dew Point 34 °F
Humidity 55%
Rainfall 0.00 in
Snow Depth Not available.
UV 0 out of 12
Pollen 10.10 out of 12
Air Quality Not available.
Flu Activity Not available.
METAR KPSO 300855Z AUTO 00000KT 10SM CLR 09/03 A3029 RMK AO2 T00940030

More Conditions Fewer Conditions

10-Day Weather Forecast

Almanac

Astronomy

Aug. 30, 2014 Rise Set
Actual Time 6:35 AM MDT 7:37 PM MDT
Civil Twilight 6:09 AM MDT 8:03 PM MDT
Nautical Twilight 5:37 AM MDT 8:35 PM MDT
Astronomical Twilight 5:04 AM MDT 9:07 PM MDT
Moon 11:17 AM MDT 10:22 PM MDT
Length of Visible Light 13h 54m
Length of Day
13h 01m
Tomorrow will be 2m 13s shorter.
Waxing Crescent, 20% of the Moon is Illuminated
Today
Waxing Crescent
Sep 2
First Quarter
Sep 8
Full
Sep 15
Last Quarter
Sep 24
New

Today's Extremes

State Highs State Lows

Community

WunderPhotos

Upload Photos

1,748,474 photos uploaded!

Nearby

Snow Depth

Station Depth Elevation
Hopewell 0 in 10000 ft
Bateman 0 in 9300 ft
Chamita 0 in 8400 ft
Senorita Divide #2 0 in 8600 ft
Quemazon 2 in 9500 ft

Earthquake Activity

City Distance Mag. Time & Date
No recent earthquake activity has been reported nearby.
Minimum magnitude displayed is 2.5.

Coastal Water Temperatures

Place Temperature
No Stations Reporting

Nearby Weather Stations